Time;durP1;ratioP1;P1;durP2;ratioP2;P2;SDS_P1;SDS_P2;PMS_P1;PMS_P2;Temp;Humidity;BMP_temperature;BMP_pressure;BME280_temperature;BME280_humidity;BME280_pressure;Samples;Min_cycle;Max_cycle;Signal;HPM_P1;HPM_P2
2023/08/18 00:01:15;;;;;;;14.20;8.50;;;;;;;-141.97;47.75;47240.41;5031449;28;20167;-83
2023/08/18 00:03:40;;;;;;;11.02;8.63;;;;;;;-141.97;47.98;47380.69;5032833;28;20489;-83
2023/08/18 00:06:06;;;;;;;13.52;8.75;;;;;;;-141.97;47.95;47584.44;5032641;28;20183;-84
2023/08/18 00:08:31;;;;;;;11.40;8.55;;;;;;;-141.97;48.31;47376.84;5031576;28;20176;-83
2023/08/18 00:10:57;;;;;;;11.98;8.23;;;;;;;-141.97;48.08;47230.78;5032721;28;20171;-84
2023/08/18 00:13:22;;;;;;;13.30;8.93;;;;;;;-141.97;48.17;47388.38;5032918;28;20241;-83
2023/08/18 00:15:47;;;;;;;15.57;9.50;;;;;;;-141.97;48.64;47182.75;5030574;28;20179;-83
2023/08/18 00:18:13;;;;;;;13.35;9.55;;;;;;;-141.97;48.90;47392.22;5032323;28;20629;-84
2023/08/18 00:20:38;;;;;;;15.90;9.80;;;;;;;-141.97;49.11;47546.00;5032398;28;20191;-84
2023/08/18 00:23:04;;;;;;;16.30;9.43;;;;;;;-141.97;49.74;47349.94;5047461;28;20267;-83
2023/08/18 00:25:29;;;;;;;12.67;9.80;;;;;;;-141.97;49.92;47407.59;5029600;28;20537;-83
2023/08/18 00:27:55;;;;;;;13.93;9.40;;;;;;;-141.97;50.39;47382.63;5032188;28;20166;-83
2023/08/18 00:30:24;;;;;;;12.27;8.93;;;;;;;-141.97;50.43;47388.38;5032346;28;20251;-84
2023/08/18 00:32:52;;;;;;;10.37;8.90;;;;;;;-141.97;50.84;47392.22;5032392;28;20188;-84
2023/08/18 00:35:17;;;;;;;13.43;8.90;;;;;;;-141.97;51.56;47453.72;5031940;28;20169;-83
2023/08/18 00:37:44;;;;;;;11.00;8.70;;;;;;;-141.97;51.65;47398.00;5032298;28;20189;-84
2023/08/18 00:40:11;;;;;;;15.03;9.03;;;;;;;-141.97;51.86;47415.28;5021767;28;20244;-83
2023/08/18 00:42:36;;;;;;;12.00;8.97;;;;;;;-141.97;51.89;47409.53;5032506;28;20186;-83
2023/08/18 00:45:02;;;;;;;12.07;8.93;;;;;;;-141.97;52.12;47321.13;5030669;28;20186;-84
2023/08/18 00:47:29;;;;;;;14.13;9.30;;;;;;;-141.97;51.95;47365.31;5031834;28;20169;-84
2023/08/18 00:49:57;;;;;;;10.10;9.07;;;;;;;-141.97;51.72;47401.84;5031771;28;20554;-85
2023/08/18 00:52:23;;;;;;;13.43;9.43;;;;;;;-141.97;52.14;47276.91;5031915;28;20220;-83
2023/08/18 00:54:50;;;;;;;15.23;9.40;;;;;;;-141.97;52.46;47374.94;5031237;28;20621;-83
2023/08/18 00:57:16;;;;;;;14.27;9.07;;;;;;;-141.97;52.58;47394.16;5031318;28;20188;-84
2023/08/18 00:59:43;;;;;;;9.90;8.90;;;;;;;-141.97;52.98;47563.28;5031440;28;20285;-84
2023/08/18 01:02:08;;;;;;;13.87;9.40;;;;;;;-141.97;53.00;47405.69;5030088;28;20248;-84
2023/08/18 01:04:34;;;;;;;10.67;9.57;;;;;;;-141.97;53.73;47572.91;5031533;28;20178;-84
2023/08/18 01:06:59;;;;;;;11.60;9.20;;;;;;;-141.97;53.60;47374.94;5034206;28;20249;-84
2023/08/18 01:09:25;;;;;;;13.00;9.27;;;;;;;-141.97;53.28;47430.66;5033212;28;20161;-83
2023/08/18 01:12:10;;;;;;;10.83;9.07;;;;;;;-141.97;53.33;47376.84;5031925;28;20174;-84
2023/08/18 01:14:46;;;;;;;11.37;9.30;;;;;;;-141.97;53.41;47401.84;5030920;28;20181;-84
2023/08/18 01:17:20;;;;;;;12.93;10.00;;;;;;;-141.97;53.41;47409.53;5031489;28;20238;-84
2023/08/18 01:19:46;;;;;;;15.70;10.40;;;;;;;-141.97;53.53;47419.13;5031206;28;20555;-84
2023/08/18 01:22:13;;;;;;;14.97;10.97;;;;;;;-141.97;53.41;47411.44;5033964;28;20530;-82
2023/08/18 01:24:40;;;;;;;14.30;10.23;;;;;;;-141.97;53.62;47411.44;5055617;28;20181;-83
2023/08/18 01:27:05;;;;;;;12.37;9.57;;;;;;;-141.97;53.77;47396.06;5044321;28;20173;-83
2023/08/18 01:29:31;;;;;;;12.90;10.43;;;;;;;-141.97;53.83;47407.59;5032034;28;20166;-84
2023/08/18 01:32:00;;;;;;;13.90;10.10;;;;;;;-141.97;53.91;47411.44;5030587;28;20184;-84
2023/08/18 01:34:29;;;;;;;15.10;11.17;;;;;;;-141.97;54.01;47380.69;5030675;28;20181;-83
2023/08/18 01:36:57;;;;;;;16.67;11.13;;;;;;;-141.97;54.23;47407.59;5031062;28;20169;-84
2023/08/18 01:39:24;;;;;;;13.10;10.20;;;;;;;-141.97;54.24;47619.03;5020044;28;20248;-84
2023/08/18 01:41:51;;;;;;;18.60;10.50;;;;;;;-141.97;54.70;47388.38;5031449;28;20185;-83
2023/08/18 01:44:18;;;;;;;14.53;9.70;;;;;;;-141.97;54.88;47422.97;5030333;28;20240;-83
2023/08/18 01:46:44;;;;;;;14.43;10.10;;;;;;;-141.97;55.26;47284.59;5030781;28;20151;-83
2023/08/18 01:49:10;;;;;;;12.40;10.03;;;;;;;-141.97;55.68;47436.44;5029366;28;20265;-83
2023/08/18 01:51:35;;;;;;;15.80;10.33;;;;;;;-141.97;55.87;47417.22;5029217;28;20339;-83
2023/08/18 01:54:01;;;;;;;13.23;10.43;;;;;;;-141.97;56.11;47438.34;5029590;28;20169;-83
2023/08/18 01:56:26;;;;;;;15.73;10.30;;;;;;;-141.97;56.22;47407.59;5033719;28;20724;-83
2023/08/18 01:58:51;;;;;;;14.73;10.67;;;;;;;-141.97;56.85;47432.59;5033251;28;20194;-83
2023/08/18 02:01:17;;;;;;;11.97;9.93;;;;;;;-141.97;57.11;47403.75;5034707;28;20165;-83
2023/08/18 02:03:42;;;;;;;13.87;10.10;;;;;;;-141.97;57.75;47446.03;5034275;28;20166;-83
2023/08/18 02:06:08;;;;;;;14.20;9.83;;;;;;;-141.97;58.17;47422.97;5034049;28;20732;-82
2023/08/18 02:08:34;;;;;;;15.07;11.03;;;;;;;-141.97;57.87;47449.88;5034264;28;20165;-83
2023/08/18 02:11:03;;;;;;;12.20;10.30;;;;;;;-141.97;57.38;47424.91;5033917;28;20622;-83
2023/08/18 02:13:29;;;;;;;13.63;10.27;;;;;;;-141.97;57.46;47421.06;5034376;28;20256;-84
2023/08/18 02:15:55;;;;;;;14.70;10.50;;;;;;;-141.97;57.49;47428.75;5032635;28;20256;-84
2023/08/18 02:18:20;;;;;;;14.43;10.93;;;;;;;-141.97;57.46;47455.66;5034593;28;20247;-84
2023/08/18 02:20:46;;;;;;;16.33;11.17;;;;;;;-141.97;57.71;47426.81;5033941;28;20201;-84
2023/08/18 02:23:11;;;;;;;20.23;11.13;;;;;;;-141.97;57.83;47392.22;5034027;28;20268;-84
2023/08/18 02:25:36;;;;;;;13.33;10.97;;;;;;;-141.97;58.18;47436.44;5032299;28;20186;-84
2023/08/18 02:28:02;;;;;;;19.20;10.83;;;;;;;-141.97;58.73;47411.44;5033652;28;20170;-83
2023/08/18 02:30:27;;;;;;;16.27;11.13;;;;;;;-141.97;60.11;47403.75;5033329;28;20630;-83
2023/08/18 02:32:53;;;;;;;15.07;10.60;;;;;;;-141.97;60.27;47419.13;5033952;28;20626;-83
2023/08/18 02:35:18;;;;;;;15.63;11.03;;;;;;;-141.97;61.18;47451.81;5034120;28;20192;-82
2023/08/18 02:37:44;;;;;;;15.13;11.60;;;;;;;-141.97;60.77;47447.97;5033835;28;20546;-84
2023/08/18 02:40:10;;;;;;;15.43;12.00;;;;;;;-141.97;60.18;47444.13;5023859;28;20242;-84
2023/08/18 02:42:35;;;;;;;20.00;12.33;;;;;;;-141.97;59.69;47424.91;5034013;28;20166;-84
2023/08/18 02:45:01;;;;;;;19.27;13.10;;;;;;;-141.97;59.29;47348.03;5033735;28;20174;-83
2023/08/18 02:47:27;;;;;;;15.17;12.40;;;;;;;-141.97;59.52;47442.19;5034238;28;20170;-82
2023/08/18 02:49:53;;;;;;;13.47;11.53;;;;;;;-141.97;59.28;47549.84;5034436;28;20159;-82
2023/08/18 02:52:18;;;;;;;15.43;11.60;;;;;;;-141.97;59.05;47434.50;5034727;28;20162;-83
2023/08/18 02:54:44;;;;;;;14.73;11.73;;;;;;;-141.97;59.16;47451.81;5033533;28;20196;-83
2023/08/18 02:57:09;;;;;;;16.57;11.80;;;;;;;-141.97;59.10;47451.81;5034781;28;20545;-84
2023/08/18 02:59:35;;;;;;;16.70;12.53;;;;;;;-141.97;59.03;47344.19;5034800;28;20255;-84
2023/08/18 03:02:00;;;;;;;15.33;12.17;;;;;;;-141.97;59.12;47421.06;5036336;28;20163;-83
2023/08/18 03:04:26;;;;;;;15.87;12.60;;;;;;;-141.97;59.13;47484.47;5032982;28;20630;-83
2023/08/18 03:06:51;;;;;;;25.70;13.07;;;;;;;-141.97;59.42;47432.59;5033141;28;20209;-83
2023/08/18 03:09:16;;;;;;;24.73;13.50;;;;;;;-141.97;59.71;47444.13;5033775;28;20166;-84
2023/08/18 03:11:42;;;;;;;17.53;12.77;;;;;;;-141.97;60.47;47442.19;5032420;28;20256;-84
2023/08/18 03:14:08;;;;;;;20.13;13.30;;;;;;;-141.97;60.72;47363.41;5033454;28;20538;-84
2023/08/18 03:16:33;;;;;;;19.20;13.13;;;;;;;-141.97;60.91;47376.84;5032187;28;20167;-84
2023/08/18 03:18:59;;;;;;;18.23;12.40;;;;;;;-141.97;61.62;47419.13;5033548;28;20189;-84
2023/08/18 03:21:24;;;;;;;18.30;12.70;;;;;;;-141.97;62.69;47442.19;5041768;28;20166;-85
2023/08/18 03:23:50;;;;;;;17.43;12.13;;;;;;;-141.97;62.84;47332.66;5047721;28;20193;-83
2023/08/18 03:26:15;;;;;;;17.10;12.83;;;;;;;-141.97;63.44;47484.47;5039725;28;20162;-83
2023/08/18 03:28:41;;;;;;;18.60;13.07;;;;;;;-141.97;64.69;47411.44;5032153;28;20182;-83
2023/08/18 03:31:07;;;;;;;22.57;13.63;;;;;;;-141.97;66.02;47334.56;5031831;28;20185;-84
2023/08/18 03:33:33;;;;;;;21.23;13.40;;;;;;;-141.97;66.42;47626.72;5033110;28;20186;-84
2023/08/18 03:35:59;;;;;;;20.73;13.50;;;;;;;-141.97;66.51;47442.19;5033272;28;20220;-83
2023/08/18 03:38:25;;;;;;;17.20;13.20;;;;;;;-141.97;65.63;47432.59;5036468;28;20233;-83
2023/08/18 03:40:57;;;;;;;20.97;13.73;;;;;;;-141.97;65.58;47415.28;5046278;28;20281;-83
2023/08/18 03:43:23;;;;;;;18.07;13.60;;;;;;;-141.97;64.89;47353.78;5045178;28;20261;-84
2023/08/18 03:45:48;;;;;;;19.07;13.50;;;;;;;-141.97;65.09;47659.38;5033950;28;20253;-84
2023/08/18 03:48:13;;;;;;;21.47;13.53;;;;;;;-141.97;65.76;47357.63;5033233;28;20173;-84
2023/08/18 03:50:39;;;;;;;20.40;13.17;;;;;;;-141.97;66.22;47426.81;5032975;28;20166;-84
2023/08/18 03:53:05;;;;;;;23.30;13.40;;;;;;;-141.97;65.99;47580.59;5031380;28;20174;-84
2023/08/18 03:55:30;;;;;;;18.37;13.30;;;;;;;-141.97;66.12;47490.25;5031902;28;20266;-83
2023/08/18 03:57:55;;;;;;;19.07;13.37;;;;;;;-141.97;66.57;47392.22;5031756;28;20184;-84
2023/08/18 04:00:21;;;;;;;21.83;13.33;;;;;;;-141.97;67.19;47459.50;5053272;28;20190;-82
2023/08/18 04:02:47;;;;;;;20.33;13.63;;;;;;;-141.97;68.04;47442.19;5048687;28;20186;-83
2023/08/18 04:05:13;;;;;;;18.77;13.20;;;;;;;-141.97;67.92;47480.63;5037415;28;20245;-84
2023/08/18 04:07:39;;;;;;;20.67;13.40;;;;;;;-141.97;68.38;47449.88;5030807;28;20201;-83
2023/08/18 04:10:05;;;;;;;19.37;13.33;;;;;;;-141.97;68.50;47499.84;5032397;28;20251;-84
2023/08/18 04:12:30;;;;;;;19.07;12.87;;;;;;;-141.97;68.82;47453.72;5031786;28;20181;-82
2023/08/18 04:14:56;;;;;;;18.97;12.73;;;;;;;-141.97;68.94;47451.81;5033006;28;20182;-84
2023/08/18 04:17:21;;;;;;;22.40;13.30;;;;;;;-141.97;68.27;47497.94;5029003;28;20178;-84
2023/08/18 04:19:47;;;;;;;18.97;12.77;;;;;;;-141.97;67.67;47615.19;5011164;28;20189;-84
2023/08/18 04:22:12;;;;;;;17.87;12.70;;;;;;;-141.97;67.24;47438.34;5015091;28;20545;-84
2023/08/18 04:24:37;;;;;;;21.30;14.40;;;;;;;-141.97;66.37;47492.16;5031967;28;20197;-84
2023/08/18 04:27:03;;;;;;;21.03;13.70;;;;;;;-141.97;65.49;47415.28;5031893;28;20220;-82
2023/08/18 04:29:29;;;;;;;20.00;13.97;;;;;;;-141.97;64.62;47522.91;5031921;28;20221;-84
2023/08/18 04:31:54;;;;;;;28.10;15.20;;;;;;;-141.97;63.76;47465.25;5029987;28;20621;-83
2023/08/18 04:34:20;;;;;;;21.23;13.93;;;;;;;-141.97;63.20;47453.72;5030272;28;20344;-84
2023/08/18 04:36:46;;;;;;;24.83;13.97;;;;;;;-141.97;62.85;47461.41;5031396;28;20187;-83
2023/08/18 04:39:11;;;;;;;22.33;13.20;;;;;;;-141.97;62.44;47461.41;5030740;28;20276;-84
2023/08/18 04:41:37;;;;;;;21.90;14.10;;;;;;;-141.97;62.68;47461.41;5021439;28;20299;-84
2023/08/18 04:44:03;;;;;;;21.53;14.27;;;;;;;-141.97;62.08;47626.72;5030050;28;20513;-83
2023/08/18 04:46:30;;;;;;;18.37;13.93;;;;;;;-141.97;61.74;47599.81;5031806;28;20212;-83
2023/08/18 04:48:55;;;;;;;18.00;13.70;;;;;;;-141.97;61.16;47567.13;5031665;28;20597;-84
2023/08/18 04:51:20;;;;;;;17.13;13.43;;;;;;;-141.97;61.08;47413.38;5031431;28;20162;-84
2023/08/18 04:53:46;;;;;;;19.80;13.37;;;;;;;-141.97;60.84;47434.50;5031215;28;20205;-84
2023/08/18 04:56:11;;;;;;;18.03;13.40;;;;;;;-141.97;60.85;47407.59;5030449;28;20221;-85
2023/08/18 04:58:37;;;;;;;17.50;13.70;;;;;;;-141.97;60.87;47449.88;5030461;28;20277;-84
2023/08/18 05:01:03;;;;;;;19.63;14.13;;;;;;;-141.97;60.99;47396.06;5032270;28;20248;-85
2023/08/18 05:03:28;;;;;;;20.07;13.37;;;;;;;-141.97;60.79;47459.50;5032489;28;20265;-84
2023/08/18 05:05:59;;;;;;;20.90;14.70;;;;;;;-141.97;60.72;47407.59;5031829;28;20176;-85
2023/08/18 05:08:28;;;;;;;20.93;14.13;;;;;;;-141.97;60.10;47409.53;5030197;28;20170;-84
2023/08/18 05:10:56;;;;;;;23.63;13.63;;;;;;;-141.97;59.51;47451.81;5031421;28;20249;-84
2023/08/18 05:13:22;;;;;;;23.97;13.50;;;;;;;-141.97;59.37;47438.34;5030708;28;20667;-83
2023/08/18 05:15:48;;;;;;;25.60;12.90;;;;;;;-141.97;59.04;47453.72;5031287;28;20158;-83
2023/08/18 05:18:13;;;;;;;18.43;12.90;;;;;;;-141.97;59.01;47413.38;5031359;28;20162;-83
2023/08/18 05:20:39;;;;;;;16.13;12.00;;;;;;;-141.97;58.90;47430.66;5031347;28;20186;-83
2023/08/18 05:23:05;;;;;;;17.30;12.00;;;;;;;-141.97;58.03;47426.81;5032548;28;20165;-83
2023/08/18 05:25:31;;;;;;;19.83;12.07;;;;;;;-141.97;57.74;47434.50;5030799;28;20204;-84
2023/08/18 05:27:57;;;;;;;19.33;13.10;;;;;;;-141.97;57.52;47430.66;5033003;28;20172;-84
2023/08/18 05:30:23;;;;;;;17.03;12.00;;;;;;;-141.97;56.94;47430.66;5033735;28;20540;-84
2023/08/18 05:32:48;;;;;;;17.17;11.30;;;;;;;-141.97;56.22;47223.09;5034519;28;20203;-83
2023/08/18 05:35:13;;;;;;;17.00;11.13;;;;;;;-141.97;56.02;47457.56;5034175;28;20165;-84
2023/08/18 05:37:39;;;;;;;17.77;11.33;;;;;;;-141.97;55.65;47321.13;5031723;28;20220;-83
2023/08/18 05:40:05;;;;;;;18.17;11.10;;;;;;;-141.97;57.31;47373.00;5022080;28;20236;-84
2023/08/18 05:42:32;;;;;;;17.07;11.40;;;;;;;-141.97;56.30;47334.56;5031359;28;20217;-84
2023/08/18 05:44:57;;;;;;;20.87;11.67;;;;;;;-141.97;55.44;47419.13;5032296;28;20158;-84
2023/08/18 05:47:22;;;;;;;14.97;10.80;;;;;;;-141.97;55.78;47405.69;5030299;28;20205;-84
2023/08/18 05:49:48;;;;;;;13.47;10.43;;;;;;;-141.97;55.05;47415.28;5030719;28;20181;-84
2023/08/18 05:52:13;;;;;;;14.93;10.13;;;;;;;-141.97;54.66;47378.78;5030985;28;20250;-85
2023/08/18 05:54:39;;;;;;;12.57;10.47;;;;;;;-141.97;54.36;47403.75;5031646;28;20222;-83
2023/08/18 05:57:04;;;;;;;15.17;10.83;;;;;;;-141.97;53.79;47401.84;5032559;28;20249;-84
2023/08/18 05:59:33;;;;;;;15.93;10.03;;;;;;;-141.97;53.33;47365.31;5031496;28;20227;-83
2023/08/18 06:01:58;;;;;;;14.53;9.87;;;;;;;-141.97;52.23;47399.91;5031003;28;20197;-84
2023/08/18 06:04:23;;;;;;;13.80;10.17;;;;;;;-141.97;52.72;47421.06;5029916;28;20641;-83
2023/08/18 06:06:49;;;;;;;12.73;10.27;;;;;;;-141.97;52.57;47401.84;5030615;28;20178;-84
2023/08/18 06:09:14;;;;;;;13.33;9.90;;;;;;;-141.97;51.45;47422.97;5029316;28;20170;-83
2023/08/18 06:11:41;;;;;;;13.97;9.40;;;;;;;-141.97;51.11;47615.19;5030891;28;20181;-83
2023/08/18 06:14:06;;;;;;;11.37;9.23;;;;;;;-141.97;51.68;47407.59;5030909;28;20158;-83
2023/08/18 06:16:32;;;;;;;13.67;9.20;;;;;;;-141.97;50.82;47378.78;5030104;28;20307;-82
2023/08/18 06:18:57;;;;;;;16.70;8.97;;;;;;;-141.97;50.25;47376.84;5031673;28;20177;-84
2023/08/18 06:21:22;;;;;;;15.60;9.40;;;;;;;-141.97;49.74;47392.22;5030771;28;20166;-82
2023/08/18 06:23:48;;;;;;;11.63;8.93;;;;;;;-141.97;49.13;47392.22;5030247;28;20163;-83
2023/08/18 06:26:13;;;;;;;12.07;9.02;;;;;;;-141.97;48.66;47440.28;5029840;28;20640;-83
2023/08/18 06:28:39;;;;;;;11.25;9.43;;;;;;;-141.97;47.83;47365.31;5030513;28;20158;-84
2023/08/18 06:31:08;;;;;;;12.77;8.80;;;;;;;-141.97;47.78;47349.94;5038287;28;20168;-83
2023/08/18 06:33:36;;;;;;;9.85;8.85;;;;;;;-141.97;48.18;47511.38;5030970;28;20168;-84
2023/08/18 06:36:03;;;;;;;12.48;9.20;;;;;;;-141.97;47.94;47357.63;5036371;28;20171;-83
2023/08/18 06:38:28;;;;;;;11.05;9.18;;;;;;;-141.97;48.74;47309.59;5054883;28;20291;-83
2023/08/18 06:40:54;;;;;;;12.88;9.30;;;;;;;-141.97;48.56;47323.03;5041600;28;20241;-83
2023/08/18 06:43:19;;;;;;;11.90;9.52;;;;;;;-141.97;48.97;47419.13;5032696;28;20222;-84
2023/08/18 06:45:45;;;;;;;13.77;9.80;;;;;;;-141.97;48.50;47380.69;5033519;28;20185;-84
2023/08/18 06:48:10;;;;;;;11.85;10.13;;;;;;;-141.97;48.96;47469.09;5033726;28;20159;-83
2023/08/18 06:50:36;;;;;;;12.98;9.48;;;;;;;-141.97;48.71;47374.94;5033752;28;20168;-83
2023/08/18 06:53:01;;;;;;;13.10;9.68;;;;;;;-141.97;48.23;47376.84;5033709;28;20161;-83
2023/08/18 06:55:27;;;;;;;11.77;9.82;;;;;;;-141.97;47.32;47415.28;5033472;28;20167;-84
2023/08/18 06:57:52;;;;;;;12.70;9.20;;;;;;;-141.97;47.04;47461.41;5032947;28;20182;-84
2023/08/18 07:00:19;;;;;;;14.70;9.65;;;;;;;-141.97;47.09;47353.78;5032308;28;20197;-84
2023/08/18 07:02:45;;;;;;;11.25;9.77;;;;;;;-141.97;47.23;47361.47;5033371;28;20164;-84
2023/08/18 07:05:12;;;;;;;13.07;9.80;;;;;;;-141.97;46.82;47386.47;5033940;28;20163;-84
2023/08/18 07:07:38;;;;;;;12.55;10.00;;;;;;;-141.97;46.33;47374.94;5034458;28;20165;-84
2023/08/18 07:10:04;;;;;;;13.30;9.82;;;;;;;-141.97;45.81;47342.25;5034532;28;20148;-84
2023/08/18 07:12:30;;;;;;;12.95;10.18;;;;;;;-141.97;45.08;47390.31;5033560;28;20176;-84
2023/08/18 07:14:55;;;;;;;12.75;9.98;;;;;;;-141.97;44.64;47361.47;5033557;28;20734;-84
2023/08/18 07:17:20;;;;;;;12.65;10.05;;;;;;;-141.97;43.75;47353.78;5033377;28;20253;-83
2023/08/18 07:19:46;;;;;;;11.00;9.65;;;;;;;-141.97;43.30;47351.88;5033039;28;20195;-83
2023/08/18 07:22:11;;;;;;;14.27;9.25;;;;;;;-141.97;42.71;47276.91;5033696;28;20200;-84
2023/08/18 07:24:36;;;;;;;12.57;9.82;;;;;;;-141.97;42.98;47349.94;5033695;28;20180;-85
2023/08/18 07:27:03;;;;;;;11.57;9.10;;;;;;;-141.97;42.39;47315.34;5036728;28;20620;-82
2023/08/18 07:29:28;;;;;;;10.68;8.75;;;;;;;-141.97;41.90;47334.56;5055166;28;20167;-83
2023/08/18 07:31:55;;;;;;;10.65;8.82;;;;;;;-141.97;42.75;47378.78;5043236;28;20170;-83
2023/08/18 07:34:20;;;;;;;10.75;8.10;;;;;;;-141.97;41.21;47342.25;5036791;28;20158;-83
2023/08/18 07:36:46;;;;;;;10.85;8.50;;;;;;;-141.97;40.58;47330.72;5035871;28;20291;-82
2023/08/18 07:39:11;;;;;;;13.55;9.15;;;;;;;-141.97;40.05;47303.81;5040276;28;20240;-82
2023/08/18 07:41:43;;;;;;;10.57;8.68;;;;;;;-141.97;39.45;47332.66;5033496;28;20247;-83
2023/08/18 07:44:09;;;;;;;8.82;8.00;;;;;;;-141.97;39.70;47540.22;5037765;28;20160;-84
2023/08/18 07:46:35;;;;;;;8.98;7.78;;;;;;;-141.97;39.50;47307.66;5037091;28;20195;-84
2023/08/18 07:49:00;;;;;;;9.50;8.05;;;;;;;-141.97;38.63;47275.00;5034616;28;20255;-84
2023/08/18 07:51:26;;;;;;;9.50;8.38;;;;;;;-141.97;38.92;47319.19;5034978;28;20209;-83
2023/08/18 07:53:51;;;;;;;9.05;7.57;;;;;;;-141.97;38.38;47311.50;5035550;28;20160;-84
2023/08/18 07:56:17;;;;;;;13.40;7.30;;;;;;;-141.97;38.84;47353.78;5032824;28;20165;-82
2023/08/18 07:58:42;;;;;;;12.85;8.95;;;;;;;-141.97;39.88;47321.13;5032659;28;20170;-82
2023/08/18 08:01:08;;;;;;;9.20;7.85;;;;;;;-141.97;39.15;47313.44;5032519;28;20201;-85
2023/08/18 08:03:35;;;;;;;11.13;8.20;;;;;;;-141.97;37.74;47276.91;5031176;28;20263;-84
2023/08/18 08:06:01;;;;;;;14.02;7.82;;;;;;;-141.97;38.02;47278.84;5032445;28;20172;-84
2023/08/18 08:08:26;;;;;;;9.80;7.75;;;;;;;-141.97;37.32;47269.22;5032835;28;20170;-83
2023/08/18 08:10:52;;;;;;;12.70;8.15;;;;;;;-141.97;37.48;47288.44;5033251;28;20592;-83
2023/08/18 08:13:17;;;;;;;13.55;8.48;;;;;;;-141.97;37.50;47238.47;5032200;28;20569;-83
2023/08/18 08:15:45;;;;;;;10.00;8.23;;;;;;;-141.97;37.32;47315.34;5033488;28;20166;-85
2023/08/18 08:18:13;;;;;;;11.40;8.13;;;;;;;-141.97;36.83;47303.81;5032365;28;20613;-84
2023/08/18 08:20:40;;;;;;;11.90;7.88;;;;;;;-141.97;37.03;47244.25;5030682;28;20194;-84
2023/08/18 08:23:05;;;;;;;9.25;7.88;;;;;;;-141.97;36.83;47315.34;5034399;28;20174;-84
2023/08/18 08:25:31;;;;;;;13.88;7.50;;;;;;;-141.97;36.41;47259.63;5032048;28;20165;-83
2023/08/18 08:27:56;;;;;;;10.23;7.97;;;;;;;-141.97;36.29;47250.00;5032685;28;20170;-86
2023/08/18 08:30:21;;;;;;;8.73;7.75;;;;;;;-141.97;35.95;47230.78;5034321;28;20520;-84
2023/08/18 08:32:47;;;;;;;10.05;7.70;;;;;;;-141.97;36.08;47275.00;5049093;28;20606;-83
2023/08/18 08:35:12;;;;;;;10.13;7.70;;;;;;;-141.97;35.51;47246.16;5033536;28;20174;-83
2023/08/18 08:37:40;;;;;;;9.77;8.05;;;;;;;-141.97;35.67;47278.84;5033038;28;20243;-83
2023/08/18 08:40:10;;;;;;;12.63;8.10;;;;;;;-141.97;35.22;47211.56;5031844;28;20226;-83
2023/08/18 08:42:35;;;;;;;15.18;8.07;;;;;;;-141.97;35.08;47250.00;5022358;28;20242;-83
2023/08/18 08:45:01;;;;;;;9.82;7.78;;;;;;;-141.97;34.82;47215.41;5031494;28;20486;-83
2023/08/18 08:47:26;;;;;;;10.05;7.70;;;;;;;-141.97;35.12;47251.94;5031077;28;20247;-83
2023/08/18 08:50:00;;;;;;;13.10;8.10;;;;;;;-141.97;35.11;47507.53;5031662;28;20177;-82
2023/08/18 08:52:28;;;;;;;9.73;7.57;;;;;;;-141.97;34.33;47250.00;5028233;28;20267;-83
2023/08/18 08:54:59;;;;;;;10.43;7.72;;;;;;;-141.97;34.21;47194.28;5031432;28;20193;-83
2023/08/18 08:57:25;;;;;;;10.20;7.88;;;;;;;-141.97;33.92;47221.19;5031349;28;20177;-83
2023/08/18 08:59:50;;;;;;;10.80;7.88;;;;;;;-141.97;33.81;47163.53;5046282;28;20190;-83
2023/08/18 09:02:16;;;;;;;10.43;7.55;;;;;;;-141.97;33.96;47228.88;5030916;28;20170;-83
2023/08/18 09:04:41;;;;;;;9.88;7.78;;;;;;;-141.97;34.33;47234.63;5030496;28;20163;-83
2023/08/18 09:07:10;;;;;;;9.65;7.97;;;;;;;-141.97;33.87;47221.19;5031113;28;20173;-83
2023/08/18 09:09:35;;;;;;;12.40;7.93;;;;;;;-141.97;34.06;47242.31;5031190;28;20158;-83
2023/08/18 09:12:05;;;;;;;10.43;7.05;;;;;;;-141.97;33.61;47276.91;5030503;28;20170;-84
2023/08/18 09:14:33;;;;;;;9.50;7.28;;;;;;;-141.97;33.62;47157.75;5031128;28;20565;-83
2023/08/18 09:16:59;;;;;;;12.82;7.60;;;;;;;-141.97;34.04;47207.72;5032973;28;20170;-84
2023/08/18 09:19:25;;;;;;;18.38;8.05;;;;;;;-141.97;34.32;47236.56;5035931;28;20252;-83
2023/08/18 09:21:51;;;;;;;11.65;7.95;;;;;;;-141.97;34.58;47234.63;5031942;28;20240;-82
2023/08/18 09:24:19;;;;;;;13.65;8.20;;;;;;;-141.97;34.21;47205.81;5031012;28;20170;-83
2023/08/18 09:26:45;;;;;;;9.68;7.53;;;;;;;-141.97;33.29;47232.72;5031442;28;20173;-83
2023/08/18 09:29:10;;;;;;;10.38;7.75;;;;;;;-141.97;33.42;47240.41;5031425;28;20162;-84
2023/08/18 09:31:35;;;;;;;10.68;7.93;;;;;;;-141.97;33.21;47207.72;5032869;28;20170;-82
2023/08/18 09:34:02;;;;;;;9.65;7.28;;;;;;;-141.97;32.45;47248.09;5031024;28;20166;-82
2023/08/18 09:36:30;;;;;;;9.82;7.30;;;;;;;-141.97;33.72;47201.97;5030708;28;20165;-82
2023/08/18 09:38:55;;;;;;;8.93;7.32;;;;;;;-141.97;33.10;47215.41;5030482;28;20249;-82
2023/08/18 09:41:21;;;;;;;9.60;7.13;;;;;;;-141.97;32.92;47198.09;5021064;28;20646;-82
2023/08/18 09:43:47;;;;;;;11.43;7.00;;;;;;;-141.97;33.50;47186.59;5031458;28;20165;-83
2023/08/18 09:46:13;;;;;;;11.38;7.22;;;;;;;-141.97;33.05;47215.41;5031876;28;20166;-84
2023/08/18 09:48:42;;;;;;;8.90;7.03;;;;;;;-141.97;33.52;47226.94;5031933;28;20166;-84
2023/08/18 09:51:09;;;;;;;9.20;7.57;;;;;;;-141.97;33.44;47223.09;5031642;28;20301;-84
2023/08/18 09:53:39;;;;;;;9.55;7.28;;;;;;;-141.97;33.15;47223.09;5031134;28;20920;-83
2023/08/18 09:56:15;;;;;;;8.35;7.32;;;;;;;-141.97;33.46;47223.09;5034520;28;20205;-85
2023/08/18 09:58:48;;;;;;;8.32;6.90;;;;;;;-141.97;33.52;47192.34;5031203;28;20556;-85
2023/08/18 10:01:15;;;;;;;9.57;7.32;;;;;;;-141.97;32.86;47207.72;5030489;28;20193;-83
2023/08/18 10:03:41;;;;;;;8.55;7.05;;;;;;;-141.97;32.92;47226.94;5028849;28;20170;-84
2023/08/18 10:06:07;;;;;;;9.75;6.90;;;;;;;-141.97;33.28;47215.41;5030319;28;20185;-84
2023/08/18 10:08:34;;;;;;;7.80;6.82;;;;;;;-141.97;33.30;47253.84;5030425;28;20190;-84
2023/08/18 10:11:02;;;;;;;8.65;7.50;;;;;;;-141.97;33.70;47223.09;5030977;28;20518;-84
2023/08/18 10:13:33;;;;;;;11.13;7.05;;;;;;;-141.97;33.51;47248.09;5032452;28;20170;-84
2023/08/18 10:15:59;;;;;;;9.23;7.10;;;;;;;-141.97;33.78;47228.88;5041176;28;20162;-82
2023/08/18 10:18:25;;;;;;;9.20;7.13;;;;;;;-141.97;33.71;47211.56;5052486;28;20178;-83
2023/08/18 10:20:53;;;;;;;8.82;7.00;;;;;;;-141.97;33.92;47200.03;5039841;28;20247;-84
2023/08/18 10:23:19;;;;;;;8.65;7.30;;;;;;;-141.97;33.88;47209.66;5034976;28;20166;-83
2023/08/18 10:25:48;;;;;;;10.90;7.53;;;;;;;-141.97;33.58;47250.00;5034398;28;20479;-84
2023/08/18 10:28:23;;;;;;;9.93;7.35;;;;;;;-141.97;32.90;47192.34;5033766;28;20174;-84
2023/08/18 10:30:57;;;;;;;9.98;7.40;;;;;;;-141.97;32.40;47188.50;5035902;28;20253;-84
2023/08/18 10:33:37;;;;;;;8.43;7.15;;;;;;;-141.97;32.59;47215.41;5038645;28;20166;-84
2023/08/18 10:36:04;;;;;;;12.10;6.78;;;;;;;-141.97;31.70;47211.56;5036994;28;20174;-84
2023/08/18 10:38:32;;;;;;;8.30;7.05;;;;;;;-141.97;32.16;47176.97;5033819;28;20599;-85
2023/08/18 10:40:58;;;;;;;12.13;7.18;;;;;;;-141.97;32.36;47196.19;5024730;28;20202;-85
2023/08/18 10:43:28;;;;;;;10.52;7.45;;;;;;;-141.97;32.67;47496.00;5032935;28;20641;-83
2023/08/18 10:45:59;;;;;;;9.00;7.40;;;;;;;-141.97;32.55;47192.34;5034600;28;20158;-84
2023/08/18 10:48:32;;;;;;;9.57;6.95;;;;;;;-141.97;32.34;47207.72;5033383;28;20650;-84
2023/08/18 10:50:58;;;;;;;11.32;7.30;;;;;;;-141.97;32.04;47169.28;5032991;28;20774;-85
2023/08/18 10:53:23;;;;;;;8.65;6.93;;;;;;;-141.97;31.90;46961.72;5050241;22;20391;-84
2023/08/18 10:55:49;;;;;;;8.80;7.07;;;;;;;-141.97;31.97;47138.53;5014983;28;20171;-84
2023/08/18 10:58:15;;;;;;;8.07;6.90;;;;;;;-141.97;31.60;47171.22;5015161;28;20627;-85
2023/08/18 11:00:41;;;;;;;12.57;7.30;;;;;;;-141.97;32.37;47163.53;5015980;28;20216;-84
2023/08/18 11:03:07;;;;;;;9.55;7.10;;;;;;;-141.97;31.88;47196.19;5017088;28;20240;-84